sensor_id;sensor_type;location;lat;lon;timestamp;P1;durP1;ratioP1;P2;durP2;ratioP2
75920;SDS011;64600;44.062;2.986;2023-02-08T17:41:21;14.75;;;5.97;;
75920;SDS011;64600;44.062;2.986;2023-02-08T17:43:51;17.42;;;7.75;;
75920;SDS011;64600;44.062;2.986;2023-02-08T17:46:22;22.17;;;10.80;;
75920;SDS011;64600;44.062;2.986;2023-02-08T17:48:55;66.68;;;35.33;;
75920;SDS011;64600;44.062;2.986;2023-02-08T17:51:28;47.78;;;24.27;;
75920;SDS011;64600;44.062;2.986;2023-02-08T17:53:54;31.17;;;14.80;;
75920;SDS011;64600;44.062;2.986;2023-02-08T17:56:22;25.45;;;11.93;;
75920;SDS011;64600;44.062;2.986;2023-02-08T17:58:50;17.52;;;7.82;;
75920;SDS011;64600;44.062;2.986;2023-02-08T18:01:19;17.98;;;6.70;;
75920;SDS011;64600;44.062;2.986;2023-02-08T18:03:50;18.42;;;6.63;;
75920;SDS011;64600;44.062;2.986;2023-02-08T18:06:15;23.58;;;5.95;;
75920;SDS011;64600;44.062;2.986;2023-02-08T18:08:42;62.95;;;23.27;;
75920;SDS011;64600;44.062;2.986;2023-02-08T18:11:08;19.10;;;7.80;;
75920;SDS011;64600;44.062;2.986;2023-02-08T18:13:37;17.63;;;6.25;;
75920;SDS011;64600;44.062;2.986;2023-02-08T18:16:10;35.67;;;11.73;;
75920;SDS011;64600;44.062;2.986;2023-02-08T18:18:40;29.35;;;10.65;;
75920;SDS011;64600;44.062;2.986;2023-02-08T18:21:15;28.90;;;9.88;;
75920;SDS011;64600;44.062;2.986;2023-02-08T18:23:43;28.45;;;11.05;;
75920;SDS011;64600;44.062;2.986;2023-02-08T18:26:10;44.20;;;17.77;;
75920;SDS011;64600;44.062;2.986;2023-02-08T18:28:40;13.30;;;5.38;;
75920;SDS011;64600;44.062;2.986;2023-02-08T18:31:07;16.02;;;5.65;;
75920;SDS011;64600;44.062;2.986;2023-02-08T18:33:34;16.98;;;6.95;;
75920;SDS011;64600;44.062;2.986;2023-02-08T18:36:00;28.17;;;10.97;;
75920;SDS011;64600;44.062;2.986;2023-02-08T18:38:26;21.95;;;8.38;;
75920;SDS011;64600;44.062;2.986;2023-02-08T18:40:52;29.83;;;12.60;;
75920;SDS011;64600;44.062;2.986;2023-02-08T18:43:17;48.00;;;22.63;;
75920;SDS011;64600;44.062;2.986;2023-02-08T18:45:43;32.42;;;17.65;;
75920;SDS011;64600;44.062;2.986;2023-02-08T18:48:10;44.58;;;20.50;;
75920;SDS011;64600;44.062;2.986;2023-02-08T18:50:36;43.22;;;20.50;;
75920;SDS011;64600;44.062;2.986;2023-02-08T18:55:13;35.17;;;14.45;;
75920;SDS011;64600;44.062;2.986;2023-02-08T18:57:38;48.05;;;23.55;;
75920;SDS011;64600;44.062;2.986;2023-02-08T19:00:04;57.83;;;29.65;;
75920;SDS011;64600;44.062;2.986;2023-02-08T19:02:30;78.47;;;39.45;;
75920;SDS011;64600;44.062;2.986;2023-02-08T19:04:56;85.47;;;40.83;;
75920;SDS011;64600;44.062;2.986;2023-02-08T19:07:21;56.08;;;24.27;;
75920;SDS011;64600;44.062;2.986;2023-02-08T19:09:47;34.83;;;15.20;;
75920;SDS011;64600;44.062;2.986;2023-02-08T19:12:13;53.47;;;19.63;;
75920;SDS011;64600;44.062;2.986;2023-02-08T19:14:39;31.88;;;13.43;;
75920;SDS011;64600;44.062;2.986;2023-02-08T19:19:31;25.90;;;9.48;;
75920;SDS011;64600;44.062;2.986;2023-02-08T19:21:57;63.97;;;26.30;;
75920;SDS011;64600;44.062;2.986;2023-02-08T19:24:23;61.90;;;25.38;;
75920;SDS011;64600;44.062;2.986;2023-02-08T19:26:48;51.60;;;18.73;;
75920;SDS011;64600;44.062;2.986;2023-02-08T19:29:15;63.40;;;31.60;;
75920;SDS011;64600;44.062;2.986;2023-02-08T19:31:42;48.97;;;23.17;;
75920;SDS011;64600;44.062;2.986;2023-02-08T19:34:09;46.35;;;20.40;;
75920;SDS011;64600;44.062;2.986;2023-02-08T19:36:36;41.35;;;18.50;;
75920;SDS011;64600;44.062;2.986;2023-02-08T19:39:05;43.05;;;21.35;;
75920;SDS011;64600;44.062;2.986;2023-02-08T19:41:35;60.30;;;27.48;;
75920;SDS011;64600;44.062;2.986;2023-02-08T19:44:03;46.50;;;21.80;;
75920;SDS011;64600;44.062;2.986;2023-02-08T19:46:30;35.33;;;17.48;;
75920;SDS011;64600;44.062;2.986;2023-02-08T19:48:58;28.95;;;12.80;;
75920;SDS011;64600;44.062;2.986;2023-02-08T19:51:28;41.53;;;22.30;;
75920;SDS011;64600;44.062;2.986;2023-02-08T19:53:56;29.95;;;15.40;;
75920;SDS011;64600;44.062;2.986;2023-02-08T19:56:25;24.10;;;10.68;;
75920;SDS011;64600;44.062;2.986;2023-02-08T19:58:52;22.38;;;10.18;;
75920;SDS011;64600;44.062;2.986;2023-02-08T20:01:19;49.88;;;19.92;;
75920;SDS011;64600;44.062;2.986;2023-02-08T20:03:46;49.35;;;19.00;;
75920;SDS011;64600;44.062;2.986;2023-02-08T20:06:23;37.15;;;15.68;;
75920;SDS011;64600;44.062;2.986;2023-02-08T20:08:50;57.28;;;22.83;;
75920;SDS011;64600;44.062;2.986;2023-02-08T20:11:20;20.20;;;8.63;;
75920;SDS011;64600;44.062;2.986;2023-02-08T20:13:48;9.63;;;3.88;;
75920;SDS011;64600;44.062;2.986;2023-02-08T20:16:14;18.10;;;5.03;;
75920;SDS011;64600;44.062;2.986;2023-02-08T20:18:40;15.80;;;6.80;;
75920;SDS011;64600;44.062;2.986;2023-02-08T20:21:06;19.88;;;8.73;;
75920;SDS011;64600;44.062;2.986;2023-02-08T20:23:32;22.95;;;8.40;;
75920;SDS011;64600;44.062;2.986;2023-02-08T20:26:04;25.20;;;10.52;;
75920;SDS011;64600;44.062;2.986;2023-02-08T20:28:41;23.63;;;10.18;;
75920;SDS011;64600;44.062;2.986;2023-02-08T20:31:16;22.17;;;8.57;;
75920;SDS011;64600;44.062;2.986;2023-02-08T20:33:42;23.60;;;8.73;;
75920;SDS011;64600;44.062;2.986;2023-02-08T20:36:09;29.67;;;11.38;;
75920;SDS011;64600;44.062;2.986;2023-02-08T20:38:45;27.23;;;12.10;;
75920;SDS011;64600;44.062;2.986;2023-02-08T20:41:13;27.55;;;10.18;;
75920;SDS011;64600;44.062;2.986;2023-02-08T20:43:40;27.83;;;10.43;;
75920;SDS011;64600;44.062;2.986;2023-02-08T20:46:07;49.15;;;18.83;;
75920;SDS011;64600;44.062;2.986;2023-02-08T20:48:35;42.88;;;18.70;;
75920;SDS011;64600;44.062;2.986;2023-02-08T20:51:05;45.00;;;19.42;;
75920;SDS011;64600;44.062;2.986;2023-02-08T20:53:35;36.08;;;17.23;;
